createdAt,value
2023-04-23T00:00:25.812Z,78.93
2023-04-23T00:02:54.538Z,80.34
2023-04-23T00:05:23.452Z,79.21
2023-04-23T00:07:50.551Z,79.50
2023-04-23T00:10:18.387Z,79.34
2023-04-23T00:12:45.925Z,79.42
2023-04-23T00:15:14.239Z,78.75
2023-04-23T00:17:41.223Z,79.13
2023-04-23T00:20:09.362Z,79.66
2023-04-23T00:22:36.374Z,79.19
2023-04-23T00:25:03.571Z,78.48
2023-04-23T00:27:30.571Z,79.04
2023-04-23T00:29:57.551Z,78.14
2023-04-23T00:32:24.728Z,78.80
2023-04-23T00:34:51.901Z,78.75
2023-04-23T00:37:18.733Z,78.83
2023-04-23T00:39:45.859Z,78.45
2023-04-23T00:42:12.826Z,78.63
2023-04-23T00:44:41.060Z,78.98
2023-04-23T00:47:08.317Z,78.57
2023-04-23T00:49:36.256Z,78.26
2023-04-23T00:52:06.327Z,78.34
2023-04-23T00:54:33.257Z,78.75
2023-04-23T00:57:00.472Z,78.63
2023-04-23T00:59:28.305Z,79.38
2023-04-23T01:01:56.469Z,79.15
2023-04-23T01:04:24.797Z,79.42
2023-04-23T01:06:51.945Z,79.25
2023-04-23T01:09:18.965Z,78.89
2023-04-23T01:11:47.568Z,78.86
2023-04-23T01:14:14.588Z,79.13
2023-04-23T01:16:41.657Z,79.03
2023-04-23T01:19:10.364Z,79.38
2023-04-23T01:21:40.867Z,79.80
2023-04-23T01:24:09.649Z,79.71
2023-04-23T01:26:36.521Z,79.35
2023-04-23T01:29:03.812Z,79.70
2023-04-23T01:31:31.365Z,79.63
2023-04-23T01:34:00.483Z,79.91
2023-04-23T01:36:27.512Z,80.97
2023-04-23T01:38:54.492Z,81.56
2023-04-23T01:41:22.952Z,81.75
2023-04-23T01:43:50.000Z,81.70
2023-04-23T01:46:17.126Z,80.67
2023-04-23T01:48:44.153Z,82.14
2023-04-23T01:51:11.224Z,81.72
2023-04-23T01:53:38.171Z,81.71
2023-04-23T01:56:05.746Z,82.14
2023-04-23T01:58:32.757Z,82.74
2023-04-23T02:00:59.820Z,83.04
2023-04-23T02:03:27.277Z,82.06
2023-04-23T02:05:55.749Z,82.96
2023-04-23T02:08:23.288Z,82.65
2023-04-23T02:10:50.304Z,82.07
2023-04-23T02:13:17.573Z,82.01
2023-04-23T02:15:45.098Z,82.47
2023-04-23T02:18:12.347Z,82.64
2023-04-23T02:20:41.203Z,82.76
2023-04-23T02:23:09.131Z,82.67
2023-04-23T02:25:38.722Z,82.82
2023-04-23T02:28:07.929Z,83.68
2023-04-23T02:30:35.680Z,83.42
2023-04-23T02:33:03.916Z,83.92
2023-04-23T02:35:31.665Z,83.82
2023-04-23T02:37:58.681Z,85.05
2023-04-23T02:40:25.832Z,84.85
2023-04-23T02:42:52.977Z,85.30
2023-04-23T02:45:20.066Z,84.47
2023-04-23T02:47:47.326Z,85.32
2023-04-23T02:50:14.336Z,85.02
2023-04-23T02:52:41.621Z,84.93
2023-04-23T02:55:09.688Z,84.93
2023-04-23T02:57:40.652Z,84.36
2023-04-23T03:00:08.657Z,85.19
2023-04-23T03:02:35.930Z,85.02
2023-04-23T03:05:03.035Z,84.73
2023-04-23T03:07:30.249Z,83.61
2023-04-23T03:09:57.204Z,84.51
2023-04-23T03:12:24.314Z,85.11
2023-04-23T03:14:51.394Z,84.01
2023-04-23T03:17:18.340Z,84.21
2023-04-23T03:19:45.501Z,82.79
2023-04-23T03:22:12.530Z,83.37
2023-04-23T03:24:39.790Z,83.33
2023-04-23T03:27:06.956Z,83.37
2023-04-23T03:29:34.179Z,83.58
2023-04-23T03:32:01.152Z,83.35
2023-04-23T03:34:31.320Z,82.77
2023-04-23T03:36:58.625Z,83.10
2023-04-23T03:39:25.531Z,83.79
2023-04-23T03:41:52.497Z,83.77
2023-04-23T03:44:23.305Z,83.83
2023-04-23T03:46:50.423Z,83.98
2023-04-23T03:49:17.426Z,84.83
2023-04-23T03:51:44.593Z,84.82
2023-04-23T03:54:11.727Z,84.32
2023-04-23T03:56:38.730Z,84.74
2023-04-23T03:59:05.890Z,84.63
2023-04-23T04:01:33.317Z,84.08
2023-04-23T04:04:00.431Z,83.56
2023-04-23T04:06:27.464Z,83.63
2023-04-23T04:08:54.254Z,84.04
2023-04-23T04:11:21.149Z,83.15
2023-04-23T04:13:48.100Z,82.51
2023-04-23T04:16:15.078Z,81.48
2023-04-23T04:18:42.217Z,80.37
2023-04-23T04:21:09.092Z,79.78
2023-04-23T04:23:36.528Z,80.00
2023-04-23T04:26:03.449Z,78.33
2023-04-23T04:28:30.560Z,77.90
2023-04-23T04:30:57.732Z,78.15
2023-04-23T04:33:26.090Z,78.16
2023-04-23T04:35:53.101Z,77.83
2023-04-23T04:38:20.146Z,76.78
2023-04-23T04:40:47.054Z,75.24
2023-04-23T04:43:13.957Z,74.42
2023-04-23T04:45:40.807Z,74.23
2023-04-23T04:48:07.644Z,73.77
2023-04-23T04:50:35.231Z,72.01
2023-04-23T04:53:02.049Z,71.01
2023-04-23T04:55:28.878Z,70.33
2023-04-23T04:57:56.153Z,70.24
2023-04-23T05:00:28.044Z,68.82
2023-04-23T05:02:55.581Z,68.23
2023-04-23T05:05:24.081Z,67.32
2023-04-23T05:07:51.199Z,66.63
2023-04-23T05:10:18.121Z,65.87
2023-04-23T05:12:45.069Z,65.22
2023-04-23T05:15:13.536Z,64.57
2023-04-23T05:17:41.469Z,62.97
2023-04-23T05:20:12.623Z,62.73
2023-04-23T05:22:41.474Z,61.77
2023-04-23T05:25:10.108Z,60.51
2023-04-23T05:27:36.965Z,60.08
2023-04-23T05:30:06.028Z,60.08
2023-04-23T05:32:32.978Z,57.71
2023-04-23T05:35:00.720Z,57.70
2023-04-23T05:37:27.516Z,57.45
2023-04-23T05:39:54.644Z,57.27
2023-04-23T05:42:21.927Z,55.10
2023-04-23T05:44:48.760Z,55.62
2023-04-23T05:47:15.939Z,55.01
2023-04-23T05:49:42.880Z,53.80
2023-04-23T05:52:09.724Z,50.65
2023-04-23T05:54:36.523Z,48.91
2023-04-23T05:57:04.626Z,48.68
2023-04-23T05:59:32.214Z,49.04
2023-04-23T06:01:59.140Z,49.30
2023-04-23T06:04:26.373Z,49.15
2023-04-23T06:06:53.350Z,48.87
2023-04-23T06:09:20.244Z,48.52
2023-04-23T06:11:47.207Z,47.59
2023-04-23T06:14:14.138Z,46.98
2023-04-23T06:16:40.937Z,48.28
2023-04-23T06:19:07.867Z,47.31
2023-04-23T06:21:34.687Z,45.21
2023-04-23T06:24:01.537Z,43.91
2023-04-23T06:26:28.479Z,44.15
2023-04-23T06:28:55.361Z,43.02
2023-04-23T06:31:22.270Z,41.85
2023-04-23T06:33:49.145Z,41.59
2023-04-23T06:36:16.109Z,42.21
2023-04-23T06:38:44.728Z,41.21
2023-04-23T06:41:13.133Z,41.81
2023-04-23T06:43:39.971Z,41.12
2023-04-23T06:46:06.802Z,40.26
2023-04-23T06:48:33.905Z,39.68
2023-04-23T06:51:00.794Z,39.84
2023-04-23T06:53:27.611Z,40.58
2023-04-23T06:55:54.470Z,39.18
2023-04-23T06:58:23.492Z,38.79
2023-04-23T07:00:50.415Z,39.96
2023-04-23T07:03:17.690Z,39.29
2023-04-23T07:05:44.558Z,38.71
2023-04-23T07:08:11.371Z,38.47
2023-04-23T07:10:38.366Z,40.97
2023-04-23T07:13:05.175Z,39.81
2023-04-23T07:15:31.985Z,39.47
2023-04-23T07:17:59.021Z,41.95
2023-04-23T07:20:26.347Z,39.69
2023-04-23T07:22:53.206Z,40.96
2023-04-23T07:25:21.610Z,38.97
2023-04-23T07:27:48.614Z,38.47
2023-04-23T07:30:16.361Z,38.81
2023-04-23T07:32:43.766Z,39.19
2023-04-23T07:35:11.559Z,38.96
2023-04-23T07:37:38.562Z,38.89
2023-04-23T07:40:06.248Z,40.45
2023-04-23T07:42:33.024Z,38.53
2023-04-23T07:45:00.105Z,37.94
2023-04-23T07:47:27.313Z,37.90
2023-04-23T07:49:54.192Z,38.14
2023-04-23T07:52:21.169Z,38.33
2023-04-23T07:54:48.009Z,38.27
2023-04-23T07:57:14.806Z,38.95
2023-04-23T07:59:42.054Z,36.96
2023-04-23T08:02:09.427Z,38.74
2023-04-23T08:04:36.416Z,37.23
2023-04-23T08:07:03.873Z,36.95
2023-04-23T08:09:30.716Z,38.51
2023-04-23T08:11:57.915Z,39.17
2023-04-23T08:14:24.799Z,38.67
2023-04-23T08:16:51.687Z,39.15
2023-04-23T08:19:18.693Z,38.53
2023-04-23T08:21:45.594Z,39.88
2023-04-23T08:24:12.518Z,38.90
2023-04-23T08:26:39.310Z,36.79
2023-04-23T08:29:06.292Z,37.86
2023-04-23T08:31:33.420Z,37.67
2023-04-23T08:34:00.368Z,40.00
2023-04-23T08:36:27.788Z,38.18
2023-04-23T08:38:54.900Z,37.92
2023-04-23T08:41:27.493Z,36.86
2023-04-23T08:44:03.267Z,37.73
2023-04-23T08:46:33.048Z,36.75
2023-04-23T08:49:03.355Z,39.96
2023-04-23T08:51:32.697Z,37.43
2023-04-23T08:54:05.128Z,36.35
2023-04-23T08:56:32.874Z,35.66
2023-04-23T08:59:00.028Z,35.99
2023-04-23T09:01:26.923Z,36.19
2023-04-23T09:03:54.208Z,34.50
2023-04-23T09:06:22.108Z,33.99
2023-04-23T09:08:49.189Z,33.78
2023-04-23T09:11:17.302Z,33.06
2023-04-23T09:13:44.202Z,34.06
2023-04-23T09:16:11.460Z,33.91
2023-04-23T09:18:38.933Z,32.94
2023-04-23T09:21:07.350Z,31.11
2023-04-23T09:23:34.902Z,32.02
2023-04-23T09:26:06.676Z,30.14
2023-04-23T09:28:38.124Z,29.12
2023-04-23T09:31:06.454Z,29.56
2023-04-23T09:33:35.426Z,28.72
2023-04-23T09:36:15.192Z,30.97
2023-04-23T09:38:42.187Z,31.36
2023-04-23T09:41:26.100Z,30.57
2023-04-23T09:43:57.201Z,29.28
2023-04-23T09:46:37.507Z,28.91
2023-04-23T09:49:07.966Z,28.64
2023-04-23T09:51:42.322Z,28.67
2023-04-23T09:54:27.830Z,28.35
2023-04-23T09:56:59.970Z,27.48
2023-04-23T09:59:45.959Z,28.24
2023-04-23T10:02:13.877Z,30.38
2023-04-23T10:04:42.212Z,30.56
2023-04-23T10:09:43.695Z,28.81
2023-04-23T10:12:27.846Z,28.65
2023-04-23T10:14:59.879Z,29.77
2023-04-23T10:17:27.186Z,28.49
2023-04-23T10:19:55.834Z,26.62
2023-04-23T10:22:24.345Z,26.43
2023-04-23T10:24:56.503Z,26.40
2023-04-23T10:27:36.722Z,26.02
2023-04-23T10:30:13.582Z,26.16
2023-04-23T10:32:41.240Z,25.63
2023-04-23T10:35:09.594Z,27.02
2023-04-23T10:37:37.768Z,27.42
2023-04-23T10:40:12.625Z,27.31
2023-04-23T10:42:40.940Z,26.27
2023-04-23T10:47:49.147Z,27.88
2023-04-23T10:50:58.345Z,28.37
2023-04-23T10:53:32.043Z,27.02
2023-04-23T10:56:10.307Z,26.80
2023-04-23T10:58:53.268Z,28.31
2023-04-23T11:01:22.318Z,29.13
2023-04-23T11:03:49.397Z,28.48
2023-04-23T11:06:40.198Z,28.40
2023-04-23T11:09:34.991Z,27.11
2023-04-23T11:12:02.961Z,27.17
2023-04-23T11:14:46.176Z,26.29
2023-04-23T11:17:14.450Z,26.41
2023-04-23T11:19:42.454Z,26.38
2023-04-23T11:22:19.549Z,26.65
2023-04-23T11:24:49.491Z,27.12
2023-04-23T11:27:18.460Z,26.56
2023-04-23T11:29:46.570Z,27.40
2023-04-23T11:32:17.248Z,27.81
2023-04-23T11:34:46.196Z,26.41
2023-04-23T11:37:15.584Z,27.66
2023-04-23T11:39:44.813Z,28.24
2023-04-23T11:42:15.553Z,26.35
2023-04-23T11:44:46.344Z,27.91
2023-04-23T11:47:14.667Z,26.96
2023-04-23T11:49:43.591Z,25.91
2023-04-23T11:52:11.502Z,26.21
2023-04-23T11:54:41.640Z,26.09
2023-04-23T11:57:08.772Z,27.07
2023-04-23T11:59:35.839Z,26.91
2023-04-23T12:02:02.735Z,24.92
2023-04-23T12:04:31.903Z,24.52
2023-04-23T12:06:59.576Z,25.03
2023-04-23T12:09:28.516Z,26.71
2023-04-23T12:11:58.656Z,25.88
2023-04-23T12:14:30.936Z,25.64
2023-04-23T12:17:08.769Z,27.21
2023-04-23T12:19:35.818Z,25.08
2023-04-23T12:22:04.007Z,26.23
2023-04-23T12:24:32.471Z,23.93
2023-04-23T12:27:02.956Z,24.25
2023-04-23T12:29:31.542Z,24.39
2023-04-23T12:32:00.514Z,24.94
2023-04-23T12:34:27.368Z,24.98
2023-04-23T12:36:57.808Z,24.66
2023-04-23T12:39:27.477Z,25.78
2023-04-23T12:41:56.771Z,25.10
2023-04-23T12:44:23.842Z,24.72
2023-04-23T12:47:03.663Z,24.67
2023-04-23T12:49:31.714Z,22.59
2023-04-23T12:52:01.650Z,23.92
2023-04-23T12:54:37.799Z,25.11
2023-04-23T12:57:07.095Z,24.97
2023-04-23T12:59:34.708Z,25.88
2023-04-23T13:02:03.079Z,24.05
2023-04-23T13:04:31.721Z,24.34
2023-04-23T13:06:58.597Z,24.65
2023-04-23T13:09:28.198Z,23.88
2023-04-23T13:11:55.716Z,24.38
2023-04-23T13:14:22.567Z,23.83
2023-04-23T13:16:49.806Z,23.31
2023-04-23T13:19:17.590Z,27.07
2023-04-23T13:21:45.204Z,26.38
2023-04-23T13:24:12.245Z,25.37
2023-04-23T13:26:39.160Z,24.15
2023-04-23T13:29:06.247Z,25.49
2023-04-23T13:31:33.337Z,26.03
2023-04-23T13:34:01.640Z,26.79
2023-04-23T13:36:28.681Z,27.20
2023-04-23T13:38:55.552Z,27.31
2023-04-23T13:41:22.413Z,27.79
2023-04-23T13:43:49.222Z,27.44
2023-04-23T13:46:16.869Z,28.02
2023-04-23T13:48:43.758Z,27.50
2023-04-23T13:51:21.790Z,27.44
2023-04-23T13:53:53.441Z,27.83
2023-04-23T13:56:20.351Z,26.63
2023-04-23T13:58:48.987Z,26.54
2023-04-23T14:01:16.312Z,26.23
2023-04-23T14:03:43.198Z,25.96
2023-04-23T14:06:10.056Z,25.65
2023-04-23T14:08:37.446Z,26.12
2023-04-23T14:11:04.829Z,26.04
2023-04-23T14:13:32.936Z,24.67
2023-04-23T14:16:02.018Z,24.52
2023-04-23T14:18:30.488Z,24.77
2023-04-23T14:20:57.470Z,25.33
2023-04-23T14:23:24.270Z,26.05
2023-04-23T14:25:59.718Z,24.90
2023-04-23T14:28:40.022Z,24.94
2023-04-23T14:31:07.651Z,25.43
2023-04-23T14:33:34.546Z,25.39
2023-04-23T14:36:01.451Z,25.63
2023-04-23T14:38:28.299Z,26.14
2023-04-23T14:40:56.003Z,27.97
2023-04-23T14:43:22.942Z,25.38
2023-04-23T14:45:51.137Z,27.06
2023-04-23T14:48:18.070Z,26.28
2023-04-23T14:50:45.009Z,26.70
2023-04-23T14:53:11.889Z,26.75
2023-04-23T14:55:40.138Z,25.59
2023-04-23T14:58:07.086Z,27.02
2023-04-23T15:00:34.120Z,25.50
2023-04-23T15:03:02.857Z,25.04
2023-04-23T15:05:29.997Z,27.49
2023-04-23T15:07:56.842Z,26.82
2023-04-23T15:10:23.860Z,27.57
2023-04-23T15:12:53.535Z,27.34
2023-04-23T15:15:36.851Z,27.46
2023-04-23T15:18:08.050Z,27.75
2023-04-23T15:20:34.870Z,27.28
2023-04-23T15:23:01.698Z,27.00
2023-04-23T15:25:30.100Z,27.09
2023-04-23T15:27:59.799Z,27.29
2023-04-23T15:30:27.483Z,27.23
2023-04-23T15:32:57.810Z,27.65
2023-04-23T15:35:25.852Z,27.29
2023-04-23T15:37:53.943Z,28.38
2023-04-23T15:40:20.852Z,27.46
2023-04-23T15:42:50.121Z,27.24
2023-04-23T15:45:17.276Z,28.14
2023-04-23T15:47:44.303Z,28.12
2023-04-23T15:50:11.553Z,27.56
2023-04-23T15:52:38.489Z,27.80
2023-04-23T15:55:06.570Z,27.32
2023-04-23T15:57:33.413Z,28.08
2023-04-23T16:00:00.343Z,27.56
2023-04-23T16:02:27.622Z,28.14
2023-04-23T16:04:54.835Z,27.96
2023-04-23T16:07:21.712Z,28.01
2023-04-23T16:09:48.676Z,28.13
2023-04-23T16:12:15.741Z,28.57
2023-04-23T16:14:43.028Z,28.95
2023-04-23T16:17:09.915Z,28.84
2023-04-23T16:19:37.494Z,28.38
2023-04-23T16:22:04.369Z,28.04
2023-04-23T16:24:31.408Z,28.43
2023-04-23T16:26:58.394Z,28.84
2023-04-23T16:29:25.442Z,29.14
2023-04-23T16:31:52.364Z,29.56
2023-04-23T16:34:19.259Z,29.30
2023-04-23T16:36:46.834Z,29.70
2023-04-23T16:39:13.821Z,29.54
2023-04-23T16:41:40.720Z,29.55
2023-04-23T16:44:07.570Z,29.73
2023-04-23T16:46:34.630Z,29.66
2023-04-23T16:49:01.590Z,29.84
2023-04-23T16:51:29.819Z,30.07
2023-04-23T16:53:57.241Z,30.90
2023-04-23T16:56:24.382Z,30.81
2023-04-23T16:58:51.247Z,31.31
2023-04-23T17:01:18.249Z,31.42
2023-04-23T17:03:46.145Z,31.86
2023-04-23T17:06:13.572Z,31.72
2023-04-23T17:08:40.669Z,31.93
2023-04-23T17:11:07.938Z,31.65
2023-04-23T17:13:35.140Z,31.76
2023-04-23T17:16:03.044Z,32.03
2023-04-23T17:18:30.142Z,32.79
2023-04-23T17:20:56.999Z,32.64
2023-04-23T17:23:23.982Z,32.73
2023-04-23T17:25:50.900Z,33.46
2023-04-23T17:28:20.287Z,33.91
2023-04-23T17:30:50.604Z,35.60
2023-04-23T17:33:18.206Z,35.56
2023-04-23T17:35:45.249Z,35.01
2023-04-23T17:38:12.836Z,35.13
2023-04-23T17:40:39.841Z,35.34
2023-04-23T17:43:08.208Z,35.59
2023-04-23T17:45:35.151Z,35.42
2023-04-23T17:48:02.220Z,35.65
2023-04-23T17:50:30.092Z,37.98
2023-04-23T17:52:57.573Z,38.46
2023-04-23T17:55:24.858Z,39.99
2023-04-23T17:57:51.866Z,41.61
2023-04-23T18:00:19.659Z,41.67
2023-04-23T18:02:46.787Z,42.96
2023-04-23T18:05:15.880Z,42.85
2023-04-23T18:07:43.880Z,41.91
2023-04-23T18:10:14.481Z,41.84
2023-04-23T18:12:41.469Z,41.36
2023-04-23T18:15:11.312Z,41.93
2023-04-23T18:17:38.764Z,43.24
2023-04-23T18:20:06.798Z,42.69
2023-04-23T18:22:33.958Z,43.96
2023-04-23T18:25:02.264Z,44.65
2023-04-23T18:27:29.225Z,45.08
2023-04-23T18:29:57.963Z,45.40
2023-04-23T18:32:34.072Z,45.73
2023-04-23T18:35:02.563Z,46.68
2023-04-23T18:37:42.708Z,48.03
2023-04-23T18:40:11.006Z,49.09
2023-04-23T18:42:37.946Z,49.97
2023-04-23T18:45:05.149Z,51.03
2023-04-23T18:47:37.179Z,51.34
2023-04-23T18:50:09.699Z,52.87
2023-04-23T18:52:36.920Z,52.01
2023-04-23T18:55:03.919Z,52.59
2023-04-23T18:57:30.729Z,51.93
2023-04-23T18:59:57.529Z,52.46
2023-04-23T19:02:34.570Z,52.95
2023-04-23T19:05:02.840Z,53.83
2023-04-23T19:07:29.804Z,53.78
2023-04-23T19:09:56.615Z,54.16
2023-04-23T19:12:23.461Z,54.95
2023-04-23T19:14:50.385Z,55.36
2023-04-23T19:17:18.770Z,55.96
2023-04-23T19:19:46.305Z,56.26
2023-04-23T19:22:13.213Z,55.29
2023-04-23T19:24:40.023Z,58.12
2023-04-23T19:27:07.330Z,57.99
2023-04-23T19:29:34.274Z,58.83
2023-04-23T19:32:01.415Z,59.75
2023-04-23T19:34:28.217Z,59.90
2023-04-23T19:36:55.150Z,61.51
2023-04-23T19:39:23.806Z,60.45
2023-04-23T19:41:50.849Z,59.98
2023-04-23T19:44:17.738Z,58.97
2023-04-23T19:46:44.600Z,60.03
2023-04-23T19:49:11.456Z,58.36
2023-04-23T19:51:39.728Z,60.48
2023-04-23T19:54:06.626Z,62.04
2023-04-23T19:56:33.443Z,59.74
2023-04-23T19:59:00.619Z,60.88
2023-04-23T20:01:30.089Z,58.38
2023-04-23T20:03:57.358Z,58.88
2023-04-23T20:06:24.342Z,57.16
2023-04-23T20:09:09.737Z,56.86
2023-04-23T20:11:36.731Z,57.19
2023-04-23T20:14:04.126Z,57.60
2023-04-23T20:16:31.086Z,58.22
2023-04-23T20:18:58.183Z,59.60
2023-04-23T20:21:25.559Z,59.05
2023-04-23T20:23:52.418Z,59.15
2023-04-23T20:26:20.289Z,59.06
2023-04-23T20:28:48.458Z,58.98
2023-04-23T20:31:15.707Z,58.94
2023-04-23T20:33:42.660Z,58.96
2023-04-23T20:36:11.060Z,58.59
2023-04-23T20:38:39.163Z,59.46
2023-04-23T20:41:06.845Z,60.12
2023-04-23T20:43:36.097Z,60.09
2023-04-23T20:46:03.234Z,60.14
2023-04-23T20:48:30.627Z,52.90
2023-04-23T20:50:58.084Z,53.45
2023-04-23T20:53:26.735Z,56.41
2023-04-23T20:55:53.635Z,55.72
2023-04-23T20:58:20.500Z,56.63
2023-04-23T21:00:48.034Z,58.03
2023-04-23T21:03:15.102Z,55.96
2023-04-23T21:05:44.457Z,56.78
2023-04-23T21:08:11.825Z,57.20
2023-04-23T21:10:39.653Z,58.89
2023-04-23T21:13:12.303Z,58.37
2023-04-23T21:15:39.801Z,58.58
2023-04-23T21:18:08.377Z,59.34
2023-04-23T21:20:36.430Z,61.48
2023-04-23T21:23:03.388Z,61.30
2023-04-23T21:25:32.589Z,61.60
2023-04-23T21:27:59.653Z,60.98
2023-04-23T21:30:48.187Z,62.23
2023-04-23T21:33:15.822Z,62.81
2023-04-23T21:35:43.750Z,63.55
2023-04-23T21:38:11.600Z,64.59
2023-04-23T21:40:39.332Z,64.54
2023-04-23T21:43:07.436Z,65.45
2023-04-23T21:45:34.420Z,64.69
2023-04-23T21:48:01.713Z,66.01
2023-04-23T21:50:30.098Z,66.26
2023-04-23T21:52:58.726Z,65.64
2023-04-23T21:55:26.910Z,65.57
2023-04-23T21:57:56.405Z,64.70
2023-04-23T22:00:25.508Z,63.86
2023-04-23T22:02:55.248Z,64.10
2023-04-23T22:05:23.827Z,64.22
2023-04-23T22:07:55.504Z,64.72
2023-04-23T22:10:23.216Z,65.29
2023-04-23T22:12:50.956Z,65.42
2023-04-23T22:15:19.481Z,64.68
2023-04-23T22:17:50.529Z,65.24
2023-04-23T22:20:19.221Z,64.45
2023-04-23T22:22:46.263Z,64.47
2023-04-23T22:25:13.287Z,64.89
2023-04-23T22:27:41.228Z,65.63
2023-04-23T22:30:10.173Z,67.09
2023-04-23T22:32:38.485Z,67.03
2023-04-23T22:35:06.974Z,66.77
2023-04-23T22:37:34.635Z,67.18
2023-04-23T22:40:02.157Z,66.15
2023-04-23T22:42:29.015Z,67.63
2023-04-23T22:44:55.864Z,64.22
2023-04-23T22:47:23.016Z,67.26
2023-04-23T22:49:50.082Z,64.59
2023-04-23T22:52:17.366Z,66.77
2023-04-23T22:54:44.417Z,67.46
2023-04-23T22:57:11.953Z,67.40
2023-04-23T22:59:42.134Z,67.54
2023-04-23T23:02:09.312Z,69.61
2023-04-23T23:04:38.593Z,68.59
2023-04-23T23:07:06.821Z,69.76
2023-04-23T23:09:33.717Z,70.10
2023-04-23T23:12:02.629Z,68.83
2023-04-23T23:14:29.975Z,63.80
2023-04-23T23:16:57.717Z,67.40
2023-04-23T23:19:27.204Z,67.12
2023-04-23T23:21:54.380Z,64.85
2023-04-23T23:24:22.952Z,65.59
2023-04-23T23:26:50.620Z,64.25
2023-04-23T23:29:17.659Z,64.36
2023-04-23T23:31:44.780Z,63.17
2023-04-23T23:34:12.489Z,64.78
2023-04-23T23:36:39.528Z,63.58
2023-04-23T23:39:06.975Z,64.22
2023-04-23T23:41:33.961Z,62.92
2023-04-23T23:44:01.130Z,63.65
2023-04-23T23:46:28.199Z,64.36
2023-04-23T23:48:55.584Z,66.11
2023-04-23T23:51:22.495Z,63.96
2023-04-23T23:53:49.401Z,64.90
2023-04-23T23:56:16.322Z,65.86
2023-04-23T23:58:43.235Z,66.23
